Time;durP1;ratioP1;P1;durP2;ratioP2;P2;SDS_P1;SDS_P2;PMS_P1;PMS_P2;Temp;Humidity;BMP_temperature;BMP_pressure;BME280_temperature;BME280_humidity;BME280_pressure;Samples;Min_cycle;Max_cycle;Signal;HPM_P1;HPM_P2
2023/06/27 00:01:26;;;;;;;;;;;25.00;45.40;;;;;;5051263;28;20089;-70
2023/06/27 00:03:53;;;;;;;;;;;25.00;45.50;;;;;;5056404;28;19987;-69
2023/06/27 00:06:20;;;;;;;;;;;25.00;45.30;;;;;;5057024;28;19983;-69
2023/06/27 00:08:47;;;;;;;;;;;25.00;46.00;;;;;;5058511;28;19983;-69
2023/06/27 00:11:13;;;;;;;;;;;24.90;45.40;;;;;;5057717;28;20302;-70
2023/06/27 00:13:41;;;;;;;;;;;24.90;45.30;;;;;;5052092;28;20033;-70
2023/06/27 00:16:12;;;;;;;;;;;24.90;45.60;;;;;;5046451;28;20110;-69
2023/06/27 00:18:42;;;;;;;;;;;24.90;45.70;;;;;;5056934;28;19980;-69
2023/06/27 00:21:08;;;;;;;;;;;24.90;46.00;;;;;;5048344;28;20019;-69
2023/06/27 00:23:35;;;;;;;;;;;24.90;45.60;;;;;;5047801;28;19976;-70
2023/06/27 00:26:02;;;;;;;;;;;24.80;45.50;;;;;;5052735;28;19992;-69
2023/06/27 00:28:28;;;;;;;;;;;24.80;45.60;;;;;;5055780;28;20504;-69
2023/06/27 00:30:55;;;;;;;;;;;24.80;45.40;;;;;;5046807;28;20085;-69
2023/06/27 00:33:21;;;;;;;;;;;24.70;45.30;;;;;;5053749;28;19975;-69
2023/06/27 00:35:49;;;;;;;;;;;24.70;45.20;;;;;;5043127;28;19995;-70
2023/06/27 00:38:16;;;;;;;;;;;24.70;45.30;;;;;;5048634;28;19976;-69
2023/06/27 00:40:42;;;;;;;;;;;24.70;45.20;;;;;;5049560;28;19980;-69
2023/06/27 00:43:09;;;;;;;;;;;24.70;45.40;;;;;;5052759;28;20215;-69
2023/06/27 00:45:35;;;;;;;;;;;24.70;45.50;;;;;;5058199;28;19999;-69
2023/06/27 00:48:03;;;;;;;;;;;24.70;45.70;;;;;;5049989;28;20044;-69
2023/06/27 00:50:30;;;;;;;;;;;24.70;45.70;;;;;;5056808;28;19999;-70
2023/06/27 00:52:59;;;;;;;;;;;24.60;45.60;;;;;;5050319;28;19979;-71
2023/06/27 00:55:25;;;;;;;;;;;24.60;46.00;;;;;;5056357;28;20523;-69
2023/06/27 00:57:53;;;;;;;;;;;24.60;46.00;;;;;;5058236;28;19979;-69
2023/06/27 01:00:20;;;;;;;;;;;24.60;45.80;;;;;;5057372;28;19979;-69
2023/06/27 01:02:47;;;;;;;;;;;24.50;45.70;;;;;;5053900;28;19980;-69
2023/06/27 01:05:14;;;;;;;;;;;24.50;46.00;;;;;;5052726;28;20087;-70
2023/06/27 01:07:41;;;;;;;;;;;24.50;46.20;;;;;;5051829;28;20468;-69
2023/06/27 01:10:14;;;;;;;;;;;24.50;46.00;;;;;;5054604;28;20053;-69
2023/06/27 01:12:45;;;;;;;;;;;24.50;46.10;;;;;;5052077;28;20036;-70
2023/06/27 01:15:11;;;;;;;;;;;24.40;45.90;;;;;;5060579;28;20007;-70
2023/06/27 01:17:39;;;;;;;;;;;24.40;45.90;;;;;;5055397;28;19979;-69
2023/06/27 01:20:07;;;;;;;;;;;24.40;45.90;;;;;;5050941;28;19976;-69
2023/06/27 01:22:40;;;;;;;;;;;24.40;45.90;;;;;;5051680;28;19975;-69
2023/06/27 01:25:12;;;;;;;;;;;24.30;45.80;;;;;;5048842;28;19992;-69
2023/06/27 01:27:39;;;;;;;;;;;24.30;45.80;;;;;;5053180;28;20136;-69
2023/06/27 01:30:06;;;;;;;;;;;24.30;45.90;;;;;;5055216;28;19991;-69
2023/06/27 01:32:35;;;;;;;;;;;24.30;46.00;;;;;;5050420;28;19991;-69
2023/06/27 01:35:04;;;;;;;;;;;24.30;46.10;;;;;;5053321;28;20046;-70
2023/06/27 01:37:35;;;;;;;;;;;24.30;46.10;;;;;;5052753;28;19980;-69
2023/06/27 01:40:04;;;;;;;;;;;24.20;46.10;;;;;;5059500;28;19976;-70
2023/06/27 01:42:35;;;;;;;;;;;24.20;46.20;;;;;;5050307;28;20066;-69
2023/06/27 01:45:02;;;;;;;;;;;24.20;46.40;;;;;;5055249;28;19996;-70
2023/06/27 01:47:29;;;;;;;;;;;24.20;46.40;;;;;;5060227;28;19991;-69
2023/06/27 01:49:56;;;;;;;;;;;24.20;46.60;;;;;;5045988;28;19999;-69
2023/06/27 01:52:23;;;;;;;;;;;24.20;46.70;;;;;;5057947;28;19982;-71
2023/06/27 01:54:49;;;;;;;;;;;24.10;46.70;;;;;;5057116;28;19991;-70
2023/06/27 01:57:16;;;;;;;;;;;24.10;46.60;;;;;;5052616;28;19983;-69
2023/06/27 01:59:44;;;;;;;;;;;24.10;46.80;;;;;;5053970;28;19986;-69
2023/06/27 02:02:10;;;;;;;;;;;24.10;46.80;;;;;;5060236;28;20049;-69
2023/06/27 02:04:37;;;;;;;;;;;24.10;47.00;;;;;;5052958;28;19999;-69
2023/06/27 02:07:03;;;;;;;;;;;24.00;47.10;;;;;;5057826;28;19984;-69
2023/06/27 02:09:30;;;;;;;;;;;24.00;47.20;;;;;;5058363;28;19979;-69
2023/06/27 02:11:56;;;;;;;;;;;24.00;47.30;;;;;;5055948;28;20022;-69
2023/06/27 02:14:23;;;;;;;;;;;24.00;47.10;;;;;;5057000;28;19995;-70
2023/06/27 02:16:51;;;;;;;;;;;24.00;47.20;;;;;;5054278;28;19999;-69
2023/06/27 02:19:17;;;;;;;;;;;24.00;47.20;;;;;;5053208;28;20794;-69
2023/06/27 02:21:44;;;;;;;;;;;23.90;47.20;;;;;;5050438;28;20033;-70
2023/06/27 02:24:10;;;;;;;;;;;23.90;47.30;;;;;;5057936;28;19995;-69
2023/06/27 02:26:37;;;;;;;;;;;23.90;47.40;;;;;;5054103;28;19979;-70
2023/06/27 02:29:04;;;;;;;;;;;23.80;47.30;;;;;;5053334;28;19983;-69
2023/06/27 02:31:30;;;;;;;;;;;23.90;47.60;;;;;;5048588;28;20007;-69
2023/06/27 02:33:58;;;;;;;;;;;23.80;47.50;;;;;;5059193;28;20033;-70
2023/06/27 02:36:27;;;;;;;;;;;23.80;47.30;;;;;;5051975;28;20080;-69
2023/06/27 02:38:54;;;;;;;;;;;23.80;47.30;;;;;;5051927;28;19979;-70
2023/06/27 02:41:21;;;;;;;;;;;23.80;47.30;;;;;;5058999;28;19976;-70
2023/06/27 02:43:47;;;;;;;;;;;23.70;47.20;;;;;;5049134;28;19979;-69
2023/06/27 02:46:14;;;;;;;;;;;23.70;47.30;;;;;;5053467;28;20569;-69
2023/06/27 02:48:40;;;;;;;;;;;23.70;47.20;;;;;;5055668;28;20010;-69
2023/06/27 02:51:08;;;;;;;;;;;23.70;47.20;;;;;;5046868;28;19992;-69
2023/06/27 02:53:35;;;;;;;;;;;23.70;47.20;;;;;;5055141;28;20033;-69
2023/06/27 02:56:02;;;;;;;;;;;23.70;47.20;;;;;;5052076;28;20763;-70
2023/06/27 02:58:29;;;;;;;;;;;23.70;47.20;;;;;;5060573;28;20061;-68
2023/06/27 03:00:56;;;;;;;;;;;23.60;47.20;;;;;;5054706;28;19999;-69
2023/06/27 03:03:22;;;;;;;;;;;23.60;47.20;;;;;;5054169;28;20563;-69
2023/06/27 03:05:49;;;;;;;;;;;23.60;47.20;;;;;;5059557;28;20403;-70
2023/06/27 03:08:17;;;;;;;;;;;23.60;47.20;;;;;;5056531;28;19976;-69
2023/06/27 03:10:43;;;;;;;;;;;23.50;47.30;;;;;;5057176;28;20482;-70
2023/06/27 03:13:10;;;;;;;;;;;23.50;47.40;;;;;;5052315;28;19976;-69
2023/06/27 03:15:36;;;;;;;;;;;23.50;47.40;;;;;;5054271;28;20007;-69
2023/06/27 03:18:03;;;;;;;;;;;23.50;47.60;;;;;;5055848;28;20375;-70
2023/06/27 03:20:29;;;;;;;;;;;23.50;47.70;;;;;;5050039;28;20408;-69
2023/06/27 03:22:56;;;;;;;;;;;23.50;47.80;;;;;;5055684;28;20022;-69
2023/06/27 03:25:24;;;;;;;;;;;23.40;47.80;;;;;;5052665;28;20002;-69
2023/06/27 03:27:50;;;;;;;;;;;23.40;47.90;;;;;;5054674;28;19995;-69
2023/06/27 03:30:17;;;;;;;;;;;23.40;48.00;;;;;;5053788;28;20358;-67
2023/06/27 03:32:43;;;;;;;;;;;23.40;48.10;;;;;;5061719;28;19979;-69
2023/06/27 03:35:10;;;;;;;;;;;23.40;48.20;;;;;;5054648;28;19991;-69
2023/06/27 03:37:36;;;;;;;;;;;23.40;48.40;;;;;;5046623;28;19991;-69
2023/06/27 03:40:03;;;;;;;;;;;23.30;48.30;;;;;;5050295;28;19983;-69
2023/06/27 03:42:31;;;;;;;;;;;23.30;48.30;;;;;;5053712;28;20857;-69
2023/06/27 03:44:58;;;;;;;;;;;23.30;48.40;;;;;;5043992;28;20023;-69
2023/06/27 03:47:25;;;;;;;;;;;23.30;48.60;;;;;;5054793;28;19988;-69
2023/06/27 03:49:51;;;;;;;;;;;23.30;48.60;;;;;;5060833;28;19989;-69
2023/06/27 03:52:18;;;;;;;;;;;23.20;48.70;;;;;;5054348;28;19995;-69
2023/06/27 03:54:44;;;;;;;;;;;23.20;48.70;;;;;;5052353;28;20003;-70
2023/06/27 03:57:11;;;;;;;;;;;23.20;48.90;;;;;;5053776;28;20010;-69
2023/06/27 03:59:39;;;;;;;;;;;23.20;49.00;;;;;;5052073;28;20049;-69
2023/06/27 04:02:05;;;;;;;;;;;23.20;49.10;;;;;;5058432;28;20701;-69
2023/06/27 04:04:32;;;;;;;;;;;23.10;49.20;;;;;;5054721;28;20264;-70
2023/06/27 04:06:58;;;;;;;;;;;23.10;49.40;;;;;;5057199;28;19979;-70
2023/06/27 04:09:25;;;;;;;;;;;23.10;49.50;;;;;;5054587;28;20029;-69
2023/06/27 04:11:52;;;;;;;;;;;23.10;49.50;;;;;;5054298;28;19996;-68
2023/06/27 04:14:18;;;;;;;;;;;23.10;49.60;;;;;;5052765;28;20471;-69
2023/06/27 04:16:46;;;;;;;;;;;23.10;49.70;;;;;;5054716;28;20003;-69
2023/06/27 04:19:12;;;;;;;;;;;23.00;49.80;;;;;;5056633;28;19980;-69
2023/06/27 04:21:39;;;;;;;;;;;23.00;49.90;;;;;;5054121;28;19986;-69
2023/06/27 04:24:06;;;;;;;;;;;23.00;50.00;;;;;;5061153;28;20439;-69
2023/06/27 04:26:32;;;;;;;;;;;22.90;50.00;;;;;;5055715;28;20101;-69
2023/06/27 04:28:59;;;;;;;;;;;22.90;50.00;;;;;;5058910;28;20033;-69
2023/06/27 04:31:26;;;;;;;;;;;22.90;50.10;;;;;;5051857;28;20382;-69
2023/06/27 04:33:59;;;;;;;;;;;22.90;50.20;;;;;;5063068;28;20074;-69
2023/06/27 04:36:26;;;;;;;;;;;22.90;50.30;;;;;;5051193;28;20080;-69
2023/06/27 04:38:53;;;;;;;;;;;22.90;50.90;;;;;;5058251;28;19990;-69
2023/06/27 04:41:19;;;;;;;;;;;22.90;50.50;;;;;;5049616;28;20361;-69
2023/06/27 04:43:46;;;;;;;;;;;22.80;50.50;;;;;;5054229;28;19986;-69
2023/06/27 04:46:12;;;;;;;;;;;22.80;50.50;;;;;;5055438;28;19999;-69
2023/06/27 04:48:39;;;;;;;;;;;22.80;50.70;;;;;;5052554;28;19987;-69
2023/06/27 04:51:07;;;;;;;;;;;22.80;50.70;;;;;;5050608;28;19992;-69
2023/06/27 04:53:34;;;;;;;;;;;22.80;50.80;;;;;;5059453;28;19979;-69
2023/06/27 04:56:00;;;;;;;;;;;22.80;50.90;;;;;;5052484;28;19995;-69
2023/06/27 04:58:27;;;;;;;;;;;22.70;50.90;;;;;;5056596;28;20092;-69
2023/06/27 05:00:53;;;;;;;;;;;22.70;51.00;;;;;;5048609;28;20000;-69
2023/06/27 05:03:21;;;;;;;;;;;22.70;51.10;;;;;;5045599;28;20045;-69
2023/06/27 05:05:48;;;;;;;;;;;22.70;51.20;;;;;;5054479;28;20001;-70
2023/06/27 05:08:16;;;;;;;;;;;22.70;51.30;;;;;;5061974;28;19975;-69
2023/06/27 05:10:43;;;;;;;;;;;22.60;51.20;;;;;;5063346;28;19987;-69
2023/06/27 05:13:09;;;;;;;;;;;22.60;51.30;;;;;;5060633;28;19980;-69
2023/06/27 05:15:36;;;;;;;;;;;22.60;51.30;;;;;;5060133;28;20002;-69
2023/06/27 05:18:21;;;;;;;;;;;22.60;51.40;;;;;;5055724;28;19979;-69
2023/06/27 05:20:48;;;;;;;;;;;22.60;52.10;;;;;;5055678;28;19975;-69
2023/06/27 05:23:14;;;;;;;;;;;22.60;51.60;;;;;;5048641;28;21726;-69
2023/06/27 05:25:42;;;;;;;;;;;22.60;51.60;;;;;;5055594;28;20006;-69
2023/06/27 05:28:09;;;;;;;;;;;22.50;51.50;;;;;;5057708;28;20069;-69
2023/06/27 05:30:35;;;;;;;;;;;22.60;51.50;;;;;;5055757;28;19994;-69
2023/06/27 05:33:02;;;;;;;;;;;22.60;51.50;;;;;;5052888;28;20473;-69
2023/06/27 05:35:28;;;;;;;;;;;22.50;51.40;;;;;;5059101;28;19988;-69
2023/06/27 05:37:55;;;;;;;;;;;22.50;51.30;;;;;;5050634;28;19980;-69
2023/06/27 05:40:22;;;;;;;;;;;22.50;51.30;;;;;;5060717;28;20384;-69
2023/06/27 05:42:51;;;;;;;;;;;22.50;51.20;;;;;;5057907;28;21448;-69
2023/06/27 05:45:18;;;;;;;;;;;22.50;51.80;;;;;;5061076;28;19994;-69
2023/06/27 05:47:44;;;;;;;;;;;22.50;51.10;;;;;;5062249;28;20053;-69
2023/06/27 05:50:11;;;;;;;;;;;22.50;51.70;;;;;;5052990;28;20383;-69
2023/06/27 05:52:37;;;;;;;;;;;22.50;51.10;;;;;;5059836;28;20554;-69
2023/06/27 05:55:04;;;;;;;;;;;22.50;51.10;;;;;;5060206;28;19996;-69
2023/06/27 05:57:30;;;;;;;;;;;22.50;51.00;;;;;;5057173;28;20537;-69
2023/06/27 05:59:58;;;;;;;;;;;22.50;50.90;;;;;;5048107;28;20041;-70
2023/06/27 06:02:25;;;;;;;;;;;22.40;50.80;;;;;;5054349;28;20044;-69
2023/06/27 06:04:54;;;;;;;;;;;22.40;50.80;;;;;;5056691;28;20468;-69
2023/06/27 06:07:21;;;;;;;;;;;22.40;50.80;;;;;;5056655;28;19983;-69
2023/06/27 06:09:47;;;;;;;;;;;22.40;50.80;;;;;;5051805;28;19979;-69
2023/06/27 06:12:14;;;;;;;;;;;22.40;50.70;;;;;;5058732;28;19995;-69
2023/06/27 06:14:40;;;;;;;;;;;22.40;50.70;;;;;;5055023;28;19995;-69
2023/06/27 06:17:08;;;;;;;;;;;22.40;50.70;;;;;;5049884;28;19991;-69
2023/06/27 06:19:35;;;;;;;;;;;22.40;50.70;;;;;;5062799;28;19976;-69
2023/06/27 06:22:01;;;;;;;;;;;22.40;50.60;;;;;;5053768;28;19990;-69
2023/06/27 06:24:28;;;;;;;;;;;22.40;50.60;;;;;;5053278;28;19991;-69
2023/06/27 06:26:54;;;;;;;;;;;22.40;50.60;;;;;;5056504;28;20098;-69
2023/06/27 06:29:21;;;;;;;;;;;22.40;50.50;;;;;;5056332;28;19983;-69
2023/06/27 06:31:47;;;;;;;;;;;22.40;51.10;;;;;;5052282;28;20003;-69
2023/06/27 06:34:15;;;;;;;;;;;22.40;50.50;;;;;;5065375;28;20478;-69
2023/06/27 06:36:42;;;;;;;;;;;22.40;50.50;;;;;;5045877;28;19995;-69
2023/06/27 06:39:08;;;;;;;;;;;22.40;50.40;;;;;;5047541;28;20010;-69
2023/06/27 06:41:35;;;;;;;;;;;22.40;50.40;;;;;;5046357;28;19976;-69
2023/06/27 06:44:01;;;;;;;;;;;22.40;50.30;;;;;;5053496;28;20000;-69
2023/06/27 06:46:28;;;;;;;;;;;22.40;50.30;;;;;;5049952;28;20046;-70
2023/06/27 06:48:54;;;;;;;;;;;22.40;50.40;;;;;;5045180;28;20033;-69
2023/06/27 06:51:23;;;;;;;;;;;22.40;50.30;;;;;;5048610;28;19983;-69
2023/06/27 06:53:49;;;;;;;;;;;22.40;50.30;;;;;;5049571;28;19980;-69
2023/06/27 06:56:16;;;;;;;;;;;22.40;50.30;;;;;;5045284;28;19980;-69
2023/06/27 06:58:42;;;;;;;;;;;22.40;50.30;;;;;;5050176;28;19983;-69
2023/06/27 07:01:09;;;;;;;;;;;22.40;50.30;;;;;;5056435;28;20468;-69
2023/06/27 07:03:35;;;;;;;;;;;22.40;50.30;;;;;;5048096;28;20516;-68
2023/06/27 07:06:02;;;;;;;;;;;22.40;50.30;;;;;;5056726;28;19995;-69
2023/06/27 07:08:30;;;;;;;;;;;22.50;50.30;;;;;;5050728;28;19975;-70
2023/06/27 07:10:57;;;;;;;;;;;22.50;50.30;;;;;;5049418;28;19976;-69
2023/06/27 07:13:23;;;;;;;;;;;22.50;50.20;;;;;;5046992;28;20533;-70
2023/06/27 07:15:50;;;;;;;;;;;22.50;50.20;;;;;;5056674;28;20014;-69
2023/06/27 07:18:16;;;;;;;;;;;22.50;50.20;;;;;;5055961;28;20713;-69
2023/06/27 07:20:43;;;;;;;;;;;22.50;50.10;;;;;;5058054;28;20037;-69
2023/06/27 07:23:09;;;;;;;;;;;22.50;50.10;;;;;;5051619;28;20030;-69
2023/06/27 07:25:38;;;;;;;;;;;22.50;50.10;;;;;;5054867;28;20618;-69
2023/06/27 07:28:05;;;;;;;;;;;22.50;50.00;;;;;;5052163;28;20009;-69
2023/06/27 07:30:31;;;;;;;;;;;22.50;50.00;;;;;;5054611;28;19991;-69
2023/06/27 07:32:58;;;;;;;;;;;22.60;50.00;;;;;;5054213;28;19999;-70
2023/06/27 07:35:24;;;;;;;;;;;22.60;49.90;;;;;;5050099;28;20000;-69
2023/06/27 07:37:51;;;;;;;;;;;22.60;49.90;;;;;;5052733;28;19980;-69
2023/06/27 07:40:18;;;;;;;;;;;22.60;50.50;;;;;;5054770;28;19986;-69
2023/06/27 07:42:45;;;;;;;;;;;22.60;49.80;;;;;;5060786;28;19979;-69
2023/06/27 07:45:12;;;;;;;;;;;22.60;49.70;;;;;;5055471;28;19999;-69
2023/06/27 07:47:38;;;;;;;;;;;22.60;49.70;;;;;;5057231;28;20509;-68
2023/06/27 07:50:05;;;;;;;;;;;22.60;49.80;;;;;;5051888;28;20040;-68
2023/06/27 07:52:32;;;;;;;;;;;22.70;49.80;;;;;;5056446;28;19995;-69
2023/06/27 07:54:58;;;;;;;;;;;22.70;49.70;;;;;;5055993;28;20003;-69
2023/06/27 07:57:25;;;;;;;;;;;22.70;49.50;;;;;;5042112;28;20453;-69
2023/06/27 07:59:53;;;;;;;;;;;22.70;49.50;;;;;;5055918;28;20540;-69
2023/06/27 08:02:20;;;;;;;;;;;22.70;49.60;;;;;;5054378;28;19998;-69
2023/06/27 08:04:46;;;;;;;;;;;22.70;49.60;;;;;;5056022;28;20180;-69
2023/06/27 08:07:13;;;;;;;;;;;22.70;49.60;;;;;;5048281;28;19987;-69
2023/06/27 08:09:39;;;;;;;;;;;22.80;49.70;;;;;;5059279;28;19987;-69
2023/06/27 08:12:06;;;;;;;;;;;22.80;49.80;;;;;;5057797;28;20732;-69
2023/06/27 08:14:33;;;;;;;;;;;22.80;49.70;;;;;;5047743;28;19998;-69
2023/06/27 08:17:01;;;;;;;;;;;22.80;49.70;;;;;;5056102;28;20007;-69
2023/06/27 08:19:28;;;;;;;;;;;22.80;49.60;;;;;;5052915;28;19976;-69
2023/06/27 08:21:54;;;;;;;;;;;22.90;49.30;;;;;;5053020;28;20573;-69
2023/06/27 08:24:21;;;;;;;;;;;22.90;49.00;;;;;;5054872;28;20483;-69
2023/06/27 08:26:49;;;;;;;;;;;22.90;48.80;;;;;;5056417;28;19983;-69
2023/06/27 08:29:16;;;;;;;;;;;22.90;48.90;;;;;;5056676;28;20062;-69
2023/06/27 08:31:42;;;;;;;;;;;22.90;49.10;;;;;;5046264;28;19995;-69
2023/06/27 08:34:10;;;;;;;;;;;22.90;49.00;;;;;;5062348;28;19995;-69
2023/06/27 08:36:37;;;;;;;;;;;23.00;49.20;;;;;;5050322;28;19995;-69
2023/06/27 08:39:03;;;;;;;;;;;23.00;49.30;;;;;;5059168;28;20697;-69
2023/06/27 08:41:30;;;;;;;;;;;23.00;49.20;;;;;;5058954;28;20028;-69
2023/06/27 08:43:57;;;;;;;;;;;23.00;49.30;;;;;;5060257;28;20033;-69
2023/06/27 08:46:24;;;;;;;;;;;23.00;49.20;;;;;;5058248;28;19999;-69
2023/06/27 08:48:52;;;;;;;;;;;23.10;49.20;;;;;;5046770;28;20721;-69
2023/06/27 08:51:22;;;;;;;;;;;23.10;49.10;;;;;;5059562;28;20445;-69
2023/06/27 08:53:49;;;;;;;;;;;23.10;49.10;;;;;;5060365;28;20389;-69
2023/06/27 08:56:17;;;;;;;;;;;23.20;49.20;;;;;;5046902;28;20030;-69
2023/06/27 08:58:45;;;;;;;;;;;23.20;48.80;;;;;;5053593;28;19984;-69
2023/06/27 09:01:12;;;;;;;;;;;23.20;48.60;;;;;;5050025;28;20753;-69
2023/06/27 09:03:39;;;;;;;;;;;23.20;48.50;;;;;;5046642;28;19986;-69
2023/06/27 09:06:07;;;;;;;;;;;23.30;48.20;;;;;;5046685;28;20046;-69
2023/06/27 09:08:35;;;;;;;;;;;23.30;47.90;;;;;;5056452;28;19976;-69
2023/06/27 09:11:04;;;;;;;;;;;23.40;48.10;;;;;;5058291;28;20037;-70
2023/06/27 09:13:31;;;;;;;;;;;23.40;48.80;;;;;;5051661;28;19991;-69
2023/06/27 09:15:57;;;;;;;;;;;23.40;48.90;;;;;;5054550;28;19996;-69
2023/06/27 09:18:24;;;;;;;;;;;23.50;48.90;;;;;;5052617;28;19983;-69
2023/06/27 09:20:50;;;;;;;;;;;23.40;48.90;;;;;;5056541;28;19997;-69
2023/06/27 09:23:17;;;;;;;;;;;23.50;49.00;;;;;;5058097;28;20033;-69
2023/06/27 09:25:45;;;;;;;;;;;23.50;47.90;;;;;;5055542;28;20002;-69
2023/06/27 09:28:16;;;;;;;;;;;23.50;48.00;;;;;;5050997;28;20609;-69
2023/06/27 09:30:51;;;;;;;;;;;23.50;48.40;;;;;;5056115;28;20628;-69
2023/06/27 09:33:18;;;;;;;;;;;23.50;48.50;;;;;;5055534;28;20358;-69
2023/06/27 09:35:45;;;;;;;;;;;23.50;48.10;;;;;;5052482;28;19995;-69
2023/06/27 09:38:12;;;;;;;;;;;23.60;48.10;;;;;;5057474;28;20419;-69
2023/06/27 09:40:39;;;;;;;;;;;23.60;48.20;;;;;;5052218;28;19984;-69
2023/06/27 09:43:08;;;;;;;;;;;23.60;48.90;;;;;;5056362;28;20488;-69
2023/06/27 09:45:34;;;;;;;;;;;23.60;49.00;;;;;;5050793;28;19996;-68
2023/06/27 09:48:01;;;;;;;;;;;23.60;49.10;;;;;;5057663;28;19979;-69
2023/06/27 09:50:28;;;;;;;;;;;23.60;48.80;;;;;;5045438;28;20426;-69
2023/06/27 09:52:58;;;;;;;;;;;23.60;48.90;;;;;;5058983;28;20049;-69
2023/06/27 09:55:25;;;;;;;;;;;23.70;48.80;;;;;;5059651;28;20030;-69
2023/06/27 09:57:52;;;;;;;;;;;23.70;48.40;;;;;;5057771;28;19983;-69
2023/06/27 10:00:21;;;;;;;;;;;23.70;47.90;;;;;;5052805;28;19979;-71
2023/06/27 10:02:48;;;;;;;;;;;23.70;47.60;;;;;;5056095;28;19982;-69
2023/06/27 10:05:15;;;;;;;;;;;23.80;48.30;;;;;;5051039;28;20082;-69
2023/06/27 10:07:41;;;;;;;;;;;23.80;48.80;;;;;;5062019;28;19980;-69
2023/06/27 10:10:08;;;;;;;;;;;23.80;48.70;;;;;;5059352;28;20094;-69
2023/06/27 10:12:35;;;;;;;;;;;23.80;48.70;;;;;;5048254;28;19991;-69
2023/06/27 10:15:02;;;;;;;;;;;23.80;48.00;;;;;;5051886;28;20823;-69
2023/06/27 10:17:30;;;;;;;;;;;23.90;47.80;;;;;;5060598;28;20068;-69
2023/06/27 10:19:57;;;;;;;;;;;23.90;47.60;;;;;;5057342;28;20176;-69
2023/06/27 10:22:26;;;;;;;;;;;23.90;47.30;;;;;;5047736;28;20041;-69
2023/06/27 10:24:56;;;;;;;;;;;24.00;47.20;;;;;;5048115;28;20625;-69
2023/06/27 10:27:25;;;;;;;;;;;24.00;46.70;;;;;;5055192;28;19979;-69
2023/06/27 10:29:51;;;;;;;;;;;24.00;46.50;;;;;;5054416;28;19979;-69
2023/06/27 10:32:19;;;;;;;;;;;24.00;47.00;;;;;;5056435;28;19991;-69
2023/06/27 10:34:47;;;;;;;;;;;24.10;47.70;;;;;;5056956;28;20362;-69
2023/06/27 10:37:21;;;;;;;;;;;24.10;47.70;;;;;;5046133;28;19984;-69
2023/06/27 10:39:55;;;;;;;;;;;24.20;46.80;;;;;;5053284;28;19971;-69
2023/06/27 10:42:29;;;;;;;;;;;24.20;47.00;;;;;;5048596;28;19993;-69
2023/06/27 10:45:01;;;;;;;;;;;24.30;47.70;;;;;;5050303;28;19998;-69
2023/06/27 10:47:34;;;;;;;;;;;24.30;48.20;;;;;;5054073;28;20080;-70
2023/06/27 10:50:06;;;;;;;;;;;24.30;48.30;;;;;;5052579;28;19986;-69
2023/06/27 10:52:33;;;;;;;;;;;24.30;48.20;;;;;;5055230;28;19987;-69
2023/06/27 10:55:18;;;;;;;;;;;24.40;46.80;;;;;;5057021;28;19991;-70
2023/06/27 10:57:46;;;;;;;;;;;24.40;46.80;;;;;;5059457;28;19990;-69
2023/06/27 11:00:13;;;;;;;;;;;24.50;46.30;;;;;;5053921;28;20711;-69
2023/06/27 11:02:41;;;;;;;;;;;24.50;47.20;;;;;;5053234;28;19983;-69
2023/06/27 11:05:12;;;;;;;;;;;24.50;47.60;;;;;;5053674;28;20037;-70
2023/06/27 11:07:38;;;;;;;;;;;24.50;47.80;;;;;;5062413;28;19979;-69
2023/06/27 11:10:22;;;;;;;;;;;24.50;47.40;;;;;;5050894;28;19988;-69
2023/06/27 11:12:49;;;;;;;;;;;24.60;47.40;;;;;;5050382;28;20388;-69
2023/06/27 11:15:17;;;;;;;;;;;24.60;45.80;;;;;;5056566;28;19991;-70
2023/06/27 11:17:45;;;;;;;;;;;24.60;45.80;;;;;;5052330;28;20489;-69
2023/06/27 11:20:13;;;;;;;;;;;24.60;46.00;;;;;;5052543;28;20057;-70
2023/06/27 11:22:40;;;;;;;;;;;24.70;44.80;;;;;;5059609;28;19990;-69
2023/06/27 11:25:13;;;;;;;;;;;24.70;44.90;;;;;;5050535;28;20236;-69
2023/06/27 11:27:40;;;;;;;;;;;24.80;44.80;;;;;;5050363;28;19975;-69
2023/06/27 11:30:07;;;;;;;;;;;24.80;45.50;;;;;;5058184;28;19987;-69
2023/06/27 11:32:34;;;;;;;;;;;24.80;45.70;;;;;;5047826;28;19976;-70
2023/06/27 11:35:00;;;;;;;;;;;24.90;44.10;;;;;;5053373;28;20460;-70
2023/06/27 11:37:28;;;;;;;;;;;24.90;43.90;;;;;;5050825;28;19990;-69
2023/06/27 11:39:56;;;;;;;;;;;25.00;44.80;;;;;;5051851;28;20358;-69
2023/06/27 11:42:33;;;;;;;;;;;25.00;44.40;;;;;;5053144;28;19975;-69
2023/06/27 11:44:59;;;;;;;;;;;25.00;45.20;;;;;;5064758;28;19991;-69
2023/06/27 11:47:26;;;;;;;;;;;25.10;45.90;;;;;;5046705;28;20045;-69
2023/06/27 11:49:52;;;;;;;;;;;25.10;45.50;;;;;;5051175;28;20022;-69
2023/06/27 11:52:19;;;;;;;;;;;25.10;44.80;;;;;;5053417;28;19976;-71
2023/06/27 11:54:50;;;;;;;;;;;25.20;45.10;;;;;;5063807;28;20003;-69
2023/06/27 11:57:17;;;;;;;;;;;25.20;44.80;;;;;;5046720;28;19999;-69
2023/06/27 11:59:44;;;;;;;;;;;25.30;44.90;;;;;;5056628;28;20071;-69
2023/06/27 12:02:10;;;;;;;;;;;25.30;44.40;;;;;;5054367;28;19999;-68
2023/06/27 12:04:37;;;;;;;;;;;25.30;44.10;;;;;;5049075;28;20757;-69
2023/06/27 12:07:16;;;;;;;;;;;25.40;44.70;;;;;;5056761;28;19976;-70
2023/06/27 12:09:42;;;;;;;;;;;25.40;44.80;;;;;;5054103;28;19975;-69
2023/06/27 12:12:10;;;;;;;;;;;25.40;44.30;;;;;;5054761;28;19998;-70
2023/06/27 12:14:37;;;;;;;;;;;25.40;44.20;;;;;;5056367;28;20003;-69
2023/06/27 12:17:03;;;;;;;;;;;25.40;44.60;;;;;;5057078;28;20000;-69
2023/06/27 12:19:30;;;;;;;;;;;25.50;44.70;;;;;;5048110;28;19981;-69
2023/06/27 12:21:58;;;;;;;;;;;25.50;43.50;;;;;;5049978;28;19983;-70
2023/06/27 12:24:25;;;;;;;;;;;25.60;43.50;;;;;;5049245;28;20002;-69
2023/06/27 12:26:51;;;;;;;;;;;25.60;43.20;;;;;;5045392;28;19983;-70
2023/06/27 12:29:19;;;;;;;;;;;25.70;43.20;;;;;;5057234;28;19984;-70
2023/06/27 12:31:46;;;;;;;;;;;25.70;43.50;;;;;;5057796;28;19992;-70
2023/06/27 12:34:13;;;;;;;;;;;25.80;42.40;;;;;;5056906;28;19995;-70
2023/06/27 12:36:39;;;;;;;;;;;25.90;42.20;;;;;;5050769;28;20432;-70
2023/06/27 12:39:06;;;;;;;;;;;25.90;42.40;;;;;;5053327;28;20029;-70
2023/06/27 12:41:33;;;;;;;;;;;25.90;42.40;;;;;;5053710;28;19983;-70
2023/06/27 12:43:59;;;;;;;;;;;26.00;42.10;;;;;;5045666;28;20496;-69
2023/06/27 12:46:27;;;;;;;;;;;26.00;43.00;;;;;;5059996;28;20044;-69
2023/06/27 12:48:54;;;;;;;;;;;26.10;42.20;;;;;;5059514;28;19975;-70
2023/06/27 12:51:21;;;;;;;;;;;26.10;42.60;;;;;;5059325;28;19975;-69
2023/06/27 12:53:48;;;;;;;;;;;26.10;42.40;;;;;;5057422;28;20121;-69
2023/06/27 12:56:14;;;;;;;;;;;26.10;42.60;;;;;;5057121;28;20093;-70
2023/06/27 12:58:42;;;;;;;;;;;26.10;43.10;;;;;;5050235;28;20033;-69
2023/06/27 13:01:10;;;;;;;;;;;26.10;44.40;;;;;;5062145;28;20457;-69
2023/06/27 13:03:38;;;;;;;;;;;26.10;43.80;;;;;;5053063;28;19980;-69
2023/06/27 13:06:04;;;;;;;;;;;26.10;44.20;;;;;;5060232;28;20023;-69
2023/06/27 13:08:31;;;;;;;;;;;26.10;42.70;;;;;;5055482;28;19976;-69
2023/06/27 13:10:57;;;;;;;;;;;26.10;42.10;;;;;;5057107;28;20274;-70
2023/06/27 13:13:24;;;;;;;;;;;26.10;42.80;;;;;;5059042;28;19976;-69
2023/06/27 13:15:50;;;;;;;;;;;26.20;42.90;;;;;;5057207;28;20014;-69
2023/06/27 13:18:17;;;;;;;;;;;26.20;43.40;;;;;;5056142;28;19975;-69
2023/06/27 13:20:46;;;;;;;;;;;26.30;44.10;;;;;;5056474;28;19980;-69
2023/06/27 13:23:12;;;;;;;;;;;26.30;44.30;;;;;;5052980;28;19976;-70
2023/06/27 13:25:41;;;;;;;;;;;26.30;43.70;;;;;;5054206;28;19995;-69
2023/06/27 13:28:08;;;;;;;;;;;26.40;44.40;;;;;;5060588;28;20050;-70
2023/06/27 13:30:34;;;;;;;;;;;26.40;44.80;;;;;;5054360;28;19998;-69
2023/06/27 13:33:01;;;;;;;;;;;26.40;44.70;;;;;;5047990;28;19982;-70
2023/06/27 13:35:28;;;;;;;;;;;26.40;44.00;;;;;;5063366;28;19999;-69
2023/06/27 13:37:56;;;;;;;;;;;26.40;44.80;;;;;;5043636;28;19976;-70
2023/06/27 13:40:23;;;;;;;;;;;26.40;44.30;;;;;;5052228;28;19972;-70
2023/06/27 13:42:49;;;;;;;;;;;26.50;43.10;;;;;;5045544;28;19979;-70
2023/06/27 13:45:16;;;;;;;;;;;26.40;42.70;;;;;;5052455;28;19999;-69
2023/06/27 13:47:42;;;;;;;;;;;26.50;42.20;;;;;;5058193;28;20125;-69
2023/06/27 13:50:09;;;;;;;;;;;26.50;42.50;;;;;;5056753;28;20057;-69
2023/06/27 13:52:36;;;;;;;;;;;26.50;42.70;;;;;;5053097;28;20025;-69
2023/06/27 13:55:05;;;;;;;;;;;26.60;43.50;;;;;;5053799;28;19996;-70
2023/06/27 13:57:32;;;;;;;;;;;26.60;44.00;;;;;;5058861;28;20528;-69
2023/06/27 13:59:58;;;;;;;;;;;26.60;43.20;;;;;;5051456;28;19980;-70
2023/06/27 14:02:25;;;;;;;;;;;26.70;42.10;;;;;;5050763;28;20126;-69
2023/06/27 14:04:51;;;;;;;;;;;26.70;41.30;;;;;;5058764;28;20041;-69
2023/06/27 14:07:18;;;;;;;;;;;26.70;42.50;;;;;;5059314;28;19979;-69
2023/06/27 14:09:44;;;;;;;;;;;26.70;42.20;;;;;;5049025;28;20409;-70
2023/06/27 14:12:13;;;;;;;;;;;26.80;42.20;;;;;;5058686;28;20021;-70
2023/06/27 14:14:39;;;;;;;;;;;26.80;42.90;;;;;;5050407;28;20026;-70
2023/06/27 14:17:06;;;;;;;;;;;26.70;41.90;;;;;;5056692;28;19991;-70